Time;durP1;ratioP1;P1;durP2;ratioP2;P2;SDS_P1;SDS_P2;PMS_P1;PMS_P2;Temp;Humidity;BMP_temperature;BMP_pressure;BME280_temperature;BME280_humidity;BME280_pressure;Samples;Min_cycle;Max_cycle;Signal;HPM_P1;HPM_P2
2023/08/06 00:00:21;;;;;;;14.32;8.55;;;14.30;99.90;;;;;;5092798;28;20578;-57
2023/08/06 00:02:46;;;;;;;8.65;7.75;;;14.30;99.90;;;;;;5091740;28;20036;-57
2023/08/06 00:05:12;;;;;;;11.35;7.93;;;14.30;99.90;;;;;;5091921;27;20036;-56
2023/08/06 00:07:38;;;;;;;10.82;7.97;;;14.30;99.90;;;;;;5093145;28;20120;-56
2023/08/06 00:10:04;;;;;;;11.80;7.60;;;14.30;99.90;;;;;;5089747;27;20044;-57
2023/08/06 00:12:30;;;;;;;8.68;7.32;;;14.30;99.90;;;;;;5092641;28;20054;-56
2023/08/06 00:14:56;;;;;;;10.75;8.00;;;14.40;99.90;;;;;;5090884;28;20036;-56
2023/08/06 00:17:21;;;;;;;9.88;7.82;;;14.40;99.90;;;;;;5086497;27;20634;-57
2023/08/06 00:19:47;;;;;;;9.40;7.25;;;14.40;99.90;;;;;;5085563;27;20040;-57
2023/08/06 00:22:13;;;;;;;9.63;7.32;;;14.40;99.90;;;;;;5090451;27;20127;-56
2023/08/06 00:24:39;;;;;;;9.18;7.47;;;14.40;99.90;;;;;;5068963;28;20074;-55
2023/08/06 00:27:05;;;;;;;9.48;7.35;;;14.40;99.90;;;;;;5075272;28;20036;-56
2023/08/06 00:29:30;;;;;;;11.70;7.15;;;14.40;99.90;;;;;;5095399;28;20521;-55
2023/08/06 00:31:56;;;;;;;9.93;7.53;;;14.40;99.90;;;;;;5090395;28;20493;-54
2023/08/06 00:34:22;;;;;;;10.07;7.22;;;14.40;99.90;;;;;;5073127;28;20074;-55
2023/08/06 00:36:47;;;;;;;12.23;7.68;;;14.40;99.90;;;;;;5092210;28;20071;-54
2023/08/06 00:39:13;;;;;;;9.27;7.07;;;14.40;99.90;;;;;;5091908;27;20040;-56
2023/08/06 00:41:39;;;;;;;12.15;7.45;;;14.40;99.90;;;;;;5093802;27;20071;-55
2023/08/06 00:44:05;;;;;;;10.40;7.65;;;14.40;99.90;;;;;;5088864;28;20047;-56
2023/08/06 00:46:33;;;;;;;10.75;7.00;;;14.40;99.90;;;;;;5088743;28;20051;-56
2023/08/06 00:48:59;;;;;;;8.50;7.10;;;14.40;99.90;;;;;;5089483;27;20116;-56
2023/08/06 00:51:26;;;;;;;12.15;7.50;;;14.40;99.90;;;;;;5072437;28;20561;-56
2023/08/06 00:53:53;;;;;;;11.77;7.88;;;14.40;99.90;;;;;;5090900;28;20036;-56
2023/08/06 00:56:19;;;;;;;9.10;7.38;;;14.40;99.90;;;;;;5091381;28;20462;-55
2023/08/06 00:58:46;;;;;;;13.95;8.10;;;14.40;99.90;;;;;;5091785;28;20144;-56
2023/08/06 01:01:12;;;;;;;11.25;7.28;;;14.40;99.90;;;;;;5088632;27;20110;-55
2023/08/06 01:03:37;;;;;;;13.48;7.50;;;14.40;99.90;;;;;;5089380;27;20126;-56
2023/08/06 01:06:04;;;;;;;11.52;7.53;;;14.40;99.90;;;;;;5054214;28;20043;-56
2023/08/06 01:08:55;;;;;;;10.30;7.40;;;14.40;99.90;;;;;;5090065;27;20047;-55
2023/08/06 01:11:43;;;;;;;11.30;8.07;;;14.40;99.90;;;;;;5072939;28;20081;-55
2023/08/06 01:14:23;;;;;;;11.57;7.80;;;14.40;99.90;;;;;;5089082;27;20498;-57
2023/08/06 01:16:51;;;;;;;10.82;7.65;;;14.40;99.90;;;;;;5079603;27;20048;-55
2023/08/06 01:19:21;;;;;;;15.85;8.40;;;14.40;99.90;;;;;;5087267;27;20048;-56
2023/08/06 01:21:47;;;;;;;9.75;7.90;;;14.30;99.90;;;;;;5086984;27;20515;-55
2023/08/06 01:24:13;;;;;;;9.35;7.72;;;14.40;99.90;;;;;;5091396;28;20165;-55
2023/08/06 01:26:50;;;;;;;12.18;8.20;;;14.40;99.90;;;;;;5092190;28;22243;-56
2023/08/06 01:29:33;;;;;;;11.15;8.60;;;14.30;99.90;;;;;;5090866;28;20052;-56
2023/08/06 01:32:01;;;;;;;12.43;8.35;;;14.30;99.90;;;;;;5088390;28;20040;-56
2023/08/06 01:34:32;;;;;;;12.65;8.25;;;14.30;99.90;;;;;;5073240;28;20055;-56
2023/08/06 01:37:00;;;;;;;11.52;8.77;;;14.30;99.90;;;;;;5089930;28;20043;-56
2023/08/06 01:39:26;;;;;;;13.18;8.80;;;14.30;99.90;;;;;;5072812;28;20054;-56
2023/08/06 01:41:52;;;;;;;12.02;9.10;;;14.30;99.90;;;;;;5070712;28;20455;-55
2023/08/06 01:44:18;;;;;;;12.20;9.82;;;14.20;99.90;;;;;;5090021;27;20032;-56
2023/08/06 01:46:44;;;;;;;14.80;9.40;;;14.30;99.90;;;;;;5087628;27;20681;-57
2023/08/06 01:49:09;;;;;;;13.25;9.20;;;14.30;99.90;;;;;;5079816;27;20478;-55
2023/08/06 01:51:35;;;;;;;12.10;9.55;;;14.30;99.90;;;;;;5092405;28;20125;-57
2023/08/06 01:54:01;;;;;;;13.20;9.90;;;14.30;99.90;;;;;;5090217;28;20095;-57
2023/08/06 01:56:27;;;;;;;14.80;10.10;;;14.30;99.90;;;;;;5087275;27;20051;-56
2023/08/06 01:58:52;;;;;;;13.45;9.88;;;14.30;99.90;;;;;;5091751;28;20118;-55
2023/08/06 02:01:18;;;;;;;17.52;10.57;;;14.30;99.90;;;;;;5087903;28;20036;-56
2023/08/06 02:03:44;;;;;;;12.38;9.98;;;14.30;99.90;;;;;;5093326;28;20175;-56
2023/08/06 02:06:09;;;;;;;15.80;10.60;;;14.30;99.90;;;;;;5089667;28;20032;-57
2023/08/06 02:08:35;;;;;;;12.57;9.82;;;14.30;99.90;;;;;;5072395;28;20116;-57
2023/08/06 02:11:02;;;;;;;15.82;11.02;;;14.30;99.90;;;;;;5072963;28;20051;-56
2023/08/06 02:13:28;;;;;;;13.48;10.32;;;14.30;99.90;;;;;;5088999;28;20048;-56
2023/08/06 02:15:54;;;;;;;12.18;10.07;;;14.30;99.90;;;;;;5052703;28;20108;-57
2023/08/06 02:18:19;;;;;;;14.82;10.60;;;14.30;99.90;;;;;;5089986;28;20599;-56
2023/08/06 02:20:56;;;;;;;15.18;10.82;;;14.30;99.90;;;;;;5093659;28;20081;-55
2023/08/06 02:23:22;;;;;;;10.90;9.73;;;14.30;99.90;;;;;;5086444;28;20093;-56
2023/08/06 02:25:47;;;;;;;13.55;10.30;;;14.30;99.90;;;;;;5093499;28;20135;-55
2023/08/06 02:28:13;;;;;;;14.52;10.20;;;14.30;99.90;;;;;;5092398;28;20054;-55
2023/08/06 02:30:39;;;;;;;14.57;11.05;;;14.40;99.90;;;;;;5094472;28;20050;-57
2023/08/06 02:33:04;;;;;;;16.15;11.10;;;14.30;99.90;;;;;;5092876;28;20088;-55
2023/08/06 02:35:30;;;;;;;12.40;10.55;;;14.40;99.90;;;;;;5092871;28;20556;-55
2023/08/06 02:37:56;;;;;;;13.70;10.65;;;14.30;99.90;;;;;;5091438;28;20104;-57
2023/08/06 02:40:22;;;;;;;13.90;10.70;;;14.30;99.90;;;;;;5093325;28;20032;-57
2023/08/06 02:42:47;;;;;;;13.65;10.73;;;14.30;99.90;;;;;;5068132;28;20511;-54
2023/08/06 02:45:13;;;;;;;14.10;10.63;;;14.30;99.90;;;;;;5047715;28;20511;-55
2023/08/06 02:47:39;;;;;;;14.63;11.23;;;14.30;99.90;;;;;;5087447;28;20074;-56
2023/08/06 02:50:05;;;;;;;14.65;11.70;;;14.30;99.90;;;;;;5089669;28;20082;-55
2023/08/06 02:52:31;;;;;;;13.82;11.20;;;14.30;99.90;;;;;;5067234;28;20047;-56
2023/08/06 02:54:59;;;;;;;14.88;11.00;;;14.30;99.90;;;;;;5083684;28;20106;-56
2023/08/06 02:57:25;;;;;;;16.08;11.77;;;14.30;99.90;;;;;;5089707;28;20042;-56
2023/08/06 02:59:51;;;;;;;15.15;11.25;;;14.40;99.90;;;;;;5089555;28;20453;-56
2023/08/06 03:02:16;;;;;;;14.27;11.43;;;14.40;99.90;;;;;;5079690;28;20044;-55
2023/08/06 03:04:42;;;;;;;13.35;11.02;;;14.40;99.90;;;;;;5064779;28;20070;-55
2023/08/06 03:07:08;;;;;;;18.70;10.55;;;14.40;99.90;;;;;;5088230;28;20449;-54
2023/08/06 03:09:33;;;;;;;13.50;11.23;;;14.40;99.90;;;;;;5074566;28;20035;-56
2023/08/06 03:11:59;;;;;;;15.65;11.82;;;14.40;99.90;;;;;;5094276;28;20088;-55
2023/08/06 03:14:25;;;;;;;14.20;10.55;;;14.40;99.90;;;;;;5087436;28;20123;-55
2023/08/06 03:16:51;;;;;;;13.80;10.63;;;14.30;99.90;;;;;;5092476;28;20076;-55
2023/08/06 03:19:16;;;;;;;14.45;10.30;;;14.40;99.90;;;;;;5094370;28;20028;-56
2023/08/06 03:21:42;;;;;;;11.45;9.13;;;14.40;99.90;;;;;;5094248;28;20048;-56
2023/08/06 03:24:08;;;;;;;14.60;9.55;;;14.40;99.90;;;;;;5092661;28;20474;-57
2023/08/06 03:26:33;;;;;;;14.68;10.07;;;14.40;99.90;;;;;;5064989;28;20479;-56
2023/08/06 03:28:59;;;;;;;14.00;9.77;;;14.40;99.90;;;;;;5098850;28;20043;-56
2023/08/06 03:31:24;;;;;;;10.13;8.43;;;14.40;99.90;;;;;;5096975;28;20070;-55
2023/08/06 03:33:50;;;;;;;10.00;8.55;;;14.40;99.90;;;;;;5098466;28;20040;-56
2023/08/06 03:36:16;;;;;;;12.13;9.35;;;14.40;99.90;;;;;;5097660;28;20060;-55
2023/08/06 03:38:42;;;;;;;13.27;9.45;;;14.40;99.90;;;;;;5097114;28;20114;-57
2023/08/06 03:41:07;;;;;;;12.82;9.23;;;14.40;99.90;;;;;;5097661;28;20409;-56
2023/08/06 03:43:33;;;;;;;12.07;9.65;;;14.40;99.90;;;;;;5078931;28;20044;-56
2023/08/06 03:45:59;;;;;;;15.45;9.45;;;14.40;99.90;;;;;;5096915;27;20040;-57
2023/08/06 03:48:24;;;;;;;11.73;9.18;;;14.40;99.90;;;;;;5077866;28;20032;-56
2023/08/06 03:50:50;;;;;;;13.60;9.65;;;14.40;99.90;;;;;;5096007;28;20052;-55
2023/08/06 03:53:16;;;;;;;13.63;9.88;;;14.40;99.90;;;;;;5096310;27;20048;-54
2023/08/06 03:55:42;;;;;;;11.73;9.27;;;14.40;99.90;;;;;;5096630;28;20051;-55
2023/08/06 03:58:07;;;;;;;13.32;8.95;;;14.40;99.90;;;;;;5096622;28;20040;-56
2023/08/06 04:00:33;;;;;;;14.50;9.05;;;14.40;99.90;;;;;;5098030;28;20035;-56
2023/08/06 04:02:59;;;;;;;11.50;8.50;;;14.40;99.90;;;;;;5095453;27;20623;-55
2023/08/06 04:05:24;;;;;;;10.30;8.35;;;14.40;99.90;;;;;;5098133;28;20047;-55
2023/08/06 04:07:50;;;;;;;9.60;8.60;;;14.40;99.90;;;;;;5095657;27;20035;-56
2023/08/06 04:10:16;;;;;;;12.63;8.80;;;14.40;99.90;;;;;;5077776;28;20040;-54
2023/08/06 04:12:42;;;;;;;10.55;8.30;;;14.40;99.90;;;;;;5080953;28;20463;-56
2023/08/06 04:15:08;;;;;;;10.18;8.50;;;14.40;99.90;;;;;;5078903;28;20440;-54
2023/08/06 04:17:33;;;;;;;12.18;8.55;;;14.40;99.90;;;;;;5096026;28;20379;-57
2023/08/06 04:19:59;;;;;;;12.30;8.80;;;14.40;99.90;;;;;;5085527;28;20034;-56
2023/08/06 04:22:25;;;;;;;14.05;9.07;;;14.40;99.90;;;;;;5095209;28;20479;-56
2023/08/06 04:24:51;;;;;;;15.20;9.32;;;14.40;99.90;;;;;;5096384;28;20465;-56
2023/08/06 04:27:18;;;;;;;11.07;8.60;;;14.50;99.90;;;;;;5097106;28;20448;-56
2023/08/06 04:29:44;;;;;;;12.02;9.75;;;14.50;99.90;;;;;;5095868;28;20047;-55
2023/08/06 04:32:10;;;;;;;10.02;9.02;;;14.50;99.90;;;;;;5096283;28;20379;-55
2023/08/06 04:34:36;;;;;;;13.27;9.52;;;14.50;99.90;;;;;;5095304;28;20127;-56
2023/08/06 04:37:03;;;;;;;13.88;9.63;;;14.50;99.90;;;;;;5095375;28;20032;-57
2023/08/06 04:39:29;;;;;;;13.48;9.98;;;14.50;99.90;;;;;;5095786;28;20055;-57
2023/08/06 04:41:56;;;;;;;14.35;9.90;;;14.50;99.90;;;;;;5094485;28;20039;-56
2023/08/06 04:44:22;;;;;;;13.48;9.88;;;14.50;99.90;;;;;;5096369;28;20040;-56
2023/08/06 04:46:48;;;;;;;13.50;9.10;;;14.50;99.90;;;;;;5059375;28;20050;-54
2023/08/06 04:49:14;;;;;;;11.55;8.98;;;14.50;99.90;;;;;;5094162;28;20047;-56
2023/08/06 04:51:39;;;;;;;11.60;9.65;;;14.50;99.90;;;;;;5077525;28;20051;-56
2023/08/06 04:54:05;;;;;;;12.13;9.20;;;14.50;99.90;;;;;;5095639;28;20149;-55
2023/08/06 04:56:32;;;;;;;14.93;9.57;;;14.50;99.90;;;;;;5097037;27;20450;-56
2023/08/06 04:58:58;;;;;;;12.73;9.10;;;14.50;99.90;;;;;;5075491;28;20051;-56
2023/08/06 05:01:24;;;;;;;11.48;9.55;;;14.50;99.90;;;;;;5077403;28;20497;-56
2023/08/06 05:03:50;;;;;;;13.05;9.05;;;14.50;99.90;;;;;;5096356;28;20032;-56
2023/08/06 05:06:15;;;;;;;10.88;8.70;;;14.50;99.90;;;;;;5095166;28;20039;-53
2023/08/06 05:08:41;;;;;;;13.13;9.18;;;14.60;99.90;;;;;;5095257;27;20471;-56
2023/08/06 05:11:07;;;;;;;13.50;9.48;;;14.50;99.90;;;;;;5077857;28;20051;-56
2023/08/06 05:13:32;;;;;;;13.30;9.07;;;14.50;99.90;;;;;;5095237;28;20457;-56
2023/08/06 05:15:58;;;;;;;10.38;8.85;;;14.50;99.90;;;;;;5078435;28;20055;-55
2023/08/06 05:18:24;;;;;;;18.83;9.45;;;14.50;99.90;;;;;;5094849;28;20118;-54
2023/08/06 05:20:50;;;;;;;12.50;9.20;;;14.50;99.90;;;;;;5095135;28;20051;-55
2023/08/06 05:23:16;;;;;;;11.75;8.70;;;14.50;99.90;;;;;;5096526;27;20039;-57
2023/08/06 05:25:42;;;;;;;10.30;8.57;;;14.40;99.90;;;;;;5093857;28;20039;-56
2023/08/06 05:28:08;;;;;;;12.50;9.52;;;14.50;99.90;;;;;;5096572;28;20051;-56
2023/08/06 05:30:37;;;;;;;13.77;9.70;;;14.50;99.90;;;;;;5075856;28;20043;-56
2023/08/06 05:33:02;;;;;;;10.40;9.30;;;14.40;99.90;;;;;;5093190;28;20086;-56
2023/08/06 05:35:28;;;;;;;14.57;9.35;;;14.50;99.90;;;;;;5096078;27;20162;-56
2023/08/06 05:37:54;;;;;;;13.90;10.35;;;14.50;99.90;;;;;;5093835;28;20047;-55
2023/08/06 05:40:19;;;;;;;13.40;9.95;;;14.50;99.90;;;;;;5095300;28;20097;-55
2023/08/06 05:42:45;;;;;;;12.40;9.35;;;14.50;99.90;;;;;;5094700;28;20047;-57
2023/08/06 05:45:11;;;;;;;11.45;8.90;;;14.60;99.90;;;;;;5094253;27;20122;-55
2023/08/06 05:47:36;;;;;;;11.85;10.02;;;14.60;99.90;;;;;;5094591;28;20612;-55
2023/08/06 05:50:02;;;;;;;13.82;9.57;;;14.60;99.90;;;;;;5094977;28;20050;-57
2023/08/06 05:52:28;;;;;;;15.57;10.30;;;14.60;99.90;;;;;;5092854;28;20040;-56
2023/08/06 05:54:55;;;;;;;12.65;9.82;;;14.70;99.90;;;;;;5096046;28;20032;-55
2023/08/06 05:57:20;;;;;;;12.68;10.02;;;14.70;99.90;;;;;;5094785;28;20044;-57
2023/08/06 05:59:46;;;;;;;13.68;9.40;;;14.80;99.90;;;;;;5095202;28;20771;-56
2023/08/06 06:02:12;;;;;;;12.55;9.80;;;14.80;99.90;;;;;;5095202;28;20089;-57
2023/08/06 06:04:37;;;;;;;10.85;9.18;;;14.90;99.90;;;;;;5094148;28;20556;-54
2023/08/06 06:07:03;;;;;;;13.52;9.32;;;14.90;99.90;;;;;;5094944;27;20032;-57
2023/08/06 06:09:29;;;;;;;12.20;9.63;;;15.00;99.90;;;;;;5093882;28;20097;-55
2023/08/06 06:11:55;;;;;;;11.63;9.73;;;15.00;99.90;;;;;;5081928;28;20364;-57
2023/08/06 06:14:20;;;;;;;10.35;9.18;;;15.10;99.90;;;;;;5094219;28;20046;-56
2023/08/06 06:16:46;;;;;;;12.48;9.55;;;15.10;99.90;;;;;;5075018;28;20035;-56
2023/08/06 06:19:12;;;;;;;12.82;9.15;;;15.20;99.90;;;;;;5094087;28;20386;-56
2023/08/06 06:21:38;;;;;;;12.25;9.25;;;15.30;99.90;;;;;;5093166;28;20100;-57
2023/08/06 06:24:05;;;;;;;13.38;8.65;;;15.30;99.90;;;;;;5092554;28;20035;-56
2023/08/06 06:26:32;;;;;;;13.40;8.15;;;15.40;99.90;;;;;;5076989;28;20553;-56
2023/08/06 06:28:58;;;;;;;9.90;8.07;;;15.40;99.90;;;;;;5093283;28;20035;-56
2023/08/06 06:31:23;;;;;;;8.90;7.70;;;15.50;99.90;;;;;;5093760;28;20055;-58
2023/08/06 06:33:49;;;;;;;10.90;7.97;;;15.60;99.90;;;;;;5092835;28;20075;-56
2023/08/06 06:36:15;;;;;;;11.48;7.40;;;15.60;99.90;;;;;;5074329;28;20040;-56
2023/08/06 06:38:41;;;;;;;10.43;7.22;;;15.70;99.90;;;;;;5093943;28;20040;-56
2023/08/06 06:41:07;;;;;;;8.25;7.45;;;15.70;99.90;;;;;;5094415;28;20069;-56
2023/08/06 06:43:33;;;;;;;10.10;6.97;;;15.80;99.90;;;;;;5075351;28;20321;-56
2023/08/06 06:45:59;;;;;;;9.88;7.30;;;15.90;99.90;;;;;;5094220;28;20035;-56
2023/08/06 06:48:32;;;;;;;8.48;7.18;;;16.00;99.90;;;;;;5094174;28;20148;-56
2023/08/06 06:50:58;;;;;;;9.18;6.68;;;16.10;99.90;;;;;;5092756;28;20485;-56
2023/08/06 06:53:27;;;;;;;9.30;6.25;;;16.20;99.90;;;;;;5093136;28;20032;-56
2023/08/06 06:55:56;;;;;;;7.00;6.30;;;16.20;99.90;;;;;;5092854;28;20100;-56
2023/08/06 06:58:22;;;;;;;7.75;6.65;;;16.30;99.90;;;;;;5076481;28;20804;-57
2023/08/06 07:00:48;;;;;;;10.40;6.70;;;16.40;99.90;;;;;;5094312;28;20092;-56
2023/08/06 07:03:15;;;;;;;8.68;5.95;;;16.40;99.90;;;;;;5094992;27;20123;-55
2023/08/06 07:05:43;;;;;;;7.95;6.10;;;16.50;99.90;;;;;;5098707;28;20072;-56
2023/08/06 07:08:09;;;;;;;8.90;6.25;;;16.60;99.90;;;;;;5097654;27;20544;-56
2023/08/06 07:10:34;;;;;;;8.48;5.70;;;16.60;99.90;;;;;;5079472;28;20035;-55
2023/08/06 07:13:00;;;;;;;7.15;5.40;;;16.70;99.90;;;;;;5079754;28;20051;-56
2023/08/06 07:15:26;;;;;;;8.00;6.00;;;16.70;99.90;;;;;;5097421;28;20051;-56
2023/08/06 07:17:52;;;;;;;8.38;6.10;;;16.80;99.90;;;;;;5086010;28;20040;-57
2023/08/06 07:20:17;;;;;;;7.57;5.97;;;16.80;99.90;;;;;;5095815;28;20032;-56
2023/08/06 07:22:44;;;;;;;6.47;5.63;;;16.90;99.90;;;;;;5096282;28;20072;-56
2023/08/06 07:25:10;;;;;;;7.10;5.88;;;16.90;99.90;;;;;;5097672;28;20109;-55
2023/08/06 07:27:36;;;;;;;5.78;5.18;;;17.00;99.90;;;;;;5097439;28;20452;-57
2023/08/06 07:30:02;;;;;;;5.47;4.97;;;17.10;99.90;;;;;;5085759;28;20529;-56
2023/08/06 07:32:28;;;;;;;7.43;5.45;;;17.20;99.90;;;;;;5097123;28;20044;-57
2023/08/06 07:34:59;;;;;;;6.50;5.63;;;17.30;99.90;;;;;;5095854;28;20051;-57
2023/08/06 07:37:25;;;;;;;6.50;5.30;;;17.40;99.90;;;;;;5096187;28;20489;-56
2023/08/06 07:39:50;;;;;;;5.55;5.03;;;17.50;99.90;;;;;;5097402;28;20128;-58
2023/08/06 07:42:16;;;;;;;5.90;5.30;;;17.60;99.90;;;;;;5096669;28;20082;-56
2023/08/06 07:44:42;;;;;;;6.60;4.68;;;17.60;99.90;;;;;;5097181;28;20626;-57
2023/08/06 07:47:08;;;;;;;9.05;5.03;;;17.60;99.90;;;;;;5096780;28;20070;-56
2023/08/06 07:49:33;;;;;;;6.95;4.78;;;17.70;99.90;;;;;;5079311;28;20085;-57
2023/08/06 07:51:59;;;;;;;6.80;4.88;;;17.80;99.90;;;;;;5097271;28;20039;-57
2023/08/06 07:54:25;;;;;;;5.20;4.50;;;18.00;99.90;;;;;;5077859;28;20122;-55
2023/08/06 07:56:50;;;;;;;4.93;4.25;;;18.10;99.90;;;;;;5098258;28;20055;-57
2023/08/06 07:59:16;;;;;;;4.93;4.13;;;18.20;99.90;;;;;;5097560;28;20390;-54
2023/08/06 08:01:42;;;;;;;5.28;4.38;;;18.20;99.90;;;;;;5097892;28;20039;-57
2023/08/06 08:04:08;;;;;;;6.53;4.40;;;18.30;99.90;;;;;;5098690;28;20067;-58
2023/08/06 08:06:33;;;;;;;4.53;4.13;;;18.30;99.90;;;;;;5081898;28;20115;-56
2023/08/06 08:08:59;;;;;;;4.10;3.70;;;18.40;99.90;;;;;;5078558;28;20080;-57
2023/08/06 08:11:26;;;;;;;5.63;4.03;;;18.40;99.90;;;;;;5096129;27;20561;-57
2023/08/06 08:13:51;;;;;;;9.98;4.30;;;18.50;99.90;;;;;;5096017;28;20435;-56
2023/08/06 08:16:17;;;;;;;4.35;3.95;;;18.60;99.90;;;;;;5095805;28;20043;-57
2023/08/06 08:18:43;;;;;;;5.28;3.88;;;18.80;99.90;;;;;;5097461;28;20039;-57
2023/08/06 08:21:09;;;;;;;4.03;3.60;;;19.00;99.90;;;;;;5095407;27;20040;-56
2023/08/06 08:23:34;;;;;;;4.10;3.60;;;19.10;99.90;;;;;;5095827;28;20676;-56
2023/08/06 08:26:02;;;;;;;5.90;3.90;;;19.10;99.90;;;;;;5096414;28;20140;-56
2023/08/06 08:28:27;;;;;;;5.63;4.20;;;19.20;99.90;;;;;;5098192;28;20040;-57
2023/08/06 08:30:53;;;;;;;5.40;4.22;;;19.30;99.90;;;;;;5098235;28;20042;-56
2023/08/06 08:33:20;;;;;;;4.95;4.28;;;19.50;99.90;;;;;;5096225;28;20048;-58
2023/08/06 08:35:47;;;;;;;4.75;3.78;;;19.60;99.90;;;;;;5096674;28;20083;-57
2023/08/06 08:38:15;;;;;;;5.97;3.95;;;19.80;99.90;;;;;;5094390;28;20046;-57
2023/08/06 08:40:47;;;;;;;6.28;4.15;;;19.80;99.90;;;;;;5095903;28;20055;-57
2023/08/06 08:43:14;;;;;;;7.38;4.13;;;19.90;99.90;;;;;;5083126;28;20367;-57
2023/08/06 08:45:42;;;;;;;4.90;4.20;;;20.00;99.90;;;;;;5079029;28;20032;-56
2023/08/06 08:48:11;;;;;;;7.18;3.90;;;20.00;99.90;;;;;;5095435;28;20075;-57
2023/08/06 08:50:36;;;;;;;7.78;3.97;;;20.00;99.90;;;;;;5077492;28;20409;-58
2023/08/06 08:53:03;;;;;;;6.15;4.40;;;20.10;99.90;;;;;;5094672;28;20035;-57
2023/08/06 08:55:29;;;;;;;6.25;4.35;;;20.30;99.90;;;;;;5096845;28;20044;-56
2023/08/06 08:57:54;;;;;;;4.25;3.85;;;20.40;99.90;;;;;;5095615;28;20032;-56
2023/08/06 09:00:20;;;;;;;3.75;3.30;;;20.40;99.90;;;;;;5075882;28;20555;-57
2023/08/06 09:02:47;;;;;;;3.97;2.40;;;20.50;99.90;;;;;;5096230;28;20051;-56
2023/08/06 09:05:13;;;;;;;5.57;2.30;;;20.60;99.90;;;;;;5076875;28;20169;-57
2023/08/06 09:07:45;;;;;;;4.18;2.70;;;20.70;99.90;;;;;;5095088;28;20040;-57
2023/08/06 09:10:13;;;;;;;5.22;2.60;;;20.70;99.90;;;;;;5077580;28;20044;-57
2023/08/06 09:12:39;;;;;;;2.65;2.40;;;20.70;99.90;;;;;;5094957;28;20067;-57
2023/08/06 09:15:05;;;;;;;3.17;2.50;;;20.80;99.90;;;;;;5096814;28;20088;-58
2023/08/06 09:17:31;;;;;;;4.90;2.30;;;20.90;99.90;;;;;;5095983;28;20028;-57
2023/08/06 09:19:57;;;;;;;5.05;2.30;;;20.80;99.90;;;;;;5095538;28;20046;-57
2023/08/06 09:22:23;;;;;;;5.45;2.22;;;20.90;99.90;;;;;;5095744;27;20500;-57
2023/08/06 09:24:49;;;;;;;2.15;1.95;;;20.90;99.90;;;;;;5080736;28;20232;-56
2023/08/06 09:27:16;;;;;;;2.10;1.90;;;20.90;99.90;;;;;;5096509;28;20510;-57
2023/08/06 09:29:44;;;;;;;5.10;2.38;;;21.00;99.90;;;;;;5076718;28;20036;-56
2023/08/06 09:32:11;;;;;;;3.30;1.83;;;21.00;99.90;;;;;;5076984;28;20565;-56
2023/08/06 09:34:40;;;;;;;2.35;1.90;;;21.10;99.90;;;;;;5096404;28;20600;-55
2023/08/06 09:37:08;;;;;;;3.22;1.98;;;21.20;99.90;;;;;;5076505;28;20101;-58
2023/08/06 09:39:33;;;;;;;3.60;1.80;;;21.30;99.90;;;;;;5095143;28;20199;-56
2023/08/06 09:42:01;;;;;;;3.00;1.80;;;21.40;99.90;;;;;;5096100;28;20039;-56
2023/08/06 09:44:28;;;;;;;3.45;2.08;;;21.40;99.90;;;;;;5094534;28;20044;-55
2023/08/06 09:46:56;;;;;;;5.20;1.65;;;21.50;99.90;;;;;;5095294;28;20031;-56
2023/08/06 09:49:26;;;;;;;1.95;1.73;;;21.60;99.90;;;;;;5096342;28;20121;-57
2023/08/06 09:51:55;;;;;;;2.25;1.60;;;21.60;99.90;;;;;;5093427;28;20036;-56
2023/08/06 09:54:23;;;;;;;2.13;1.83;;;21.60;99.90;;;;;;5094504;28;20043;-57
2023/08/06 09:56:49;;;;;;;2.95;1.70;;;21.70;99.90;;;;;;5094746;28;20032;-56
2023/08/06 09:59:16;;;;;;;4.22;1.85;;;21.80;99.90;;;;;;5093004;28;20044;-57
2023/08/06 10:01:42;;;;;;;1.60;1.50;;;21.90;99.90;;;;;;5095773;28;20114;-58
2023/08/06 10:04:11;;;;;;;3.58;1.88;;;21.90;99.90;;;;;;5094964;28;20107;-57
2023/08/06 10:06:37;;;;;;;2.80;1.80;;;22.10;99.90;;;;;;5094405;28;20128;-57
2023/08/06 10:09:04;;;;;;;2.13;1.60;;;22.10;99.90;;;;;;5095946;28;20055;-57
2023/08/06 10:11:30;;;;;;;2.92;1.73;;;22.10;99.90;;;;;;5095504;28;20035;-56
2023/08/06 10:14:32;;;;;;;8.68;1.98;;;22.20;99.90;;;;;;5094575;28;20282;-56
2023/08/06 10:16:59;;;;;;;5.78;1.70;;;22.20;99.90;;;;;;5051552;28;20084;-55
2023/08/06 10:19:26;;;;;;;3.10;1.48;;;22.20;99.90;;;;;;5094920;27;20046;-56
2023/08/06 10:22:12;;;;;;;4.00;2.00;;;22.30;99.90;;;;;;5093429;28;20078;-57
2023/08/06 10:24:52;;;;;;;4.22;1.60;;;22.50;99.90;;;;;;5093201;28;20040;-55
2023/08/06 10:27:31;;;;;;;2.72;1.83;;;22.60;99.90;;;;;;5081825;28;20038;-57
2023/08/06 10:30:27;;;;;;;2.63;2.13;;;22.80;99.90;;;;;;5094599;28;20123;-56
2023/08/06 10:33:01;;;;;;;5.95;2.55;;;22.80;99.90;;;;;;5108398;28;20051;-60
2023/08/06 10:35:49;;;;;;;2.78;1.73;;;22.80;99.90;;;;;;5109434;28;20497;-57
2023/08/06 10:38:22;;;;;;;2.50;1.80;;;22.70;99.80;;;;;;5115460;27;20038;-60
2023/08/06 10:40:54;;;;;;;4.57;1.88;;;22.60;99.60;;;;;;5116007;27;20155;-56
2023/08/06 10:43:31;;;;;;;3.43;1.90;;;22.70;99.90;;;;;;5114238;27;20121;-60
2023/08/06 10:45:58;;;;;;;1.75;1.65;;;22.70;99.80;;;;;;5114503;28;20113;-59
2023/08/06 10:48:37;;;;;;;2.15;1.80;;;22.70;99.30;;;;;;5115093;28;20073;-59
2023/08/06 10:51:05;;;;;;;2.70;1.80;;;22.60;97.70;;;;;;5113123;28;20047;-59
2023/08/06 10:53:31;;;;;;;2.38;1.77;;;22.50;98.20;;;;;;5110536;28;20046;-57
2023/08/06 10:55:58;;;;;;;2.80;2.05;;;22.50;98.60;;;;;;5100913;28;20048;-59
2023/08/06 10:58:23;;;;;;;2.38;1.70;;;22.60;98.20;;;;;;5112819;28;21293;-59
2023/08/06 11:00:49;;;;;;;1.95;1.70;;;22.60;98.10;;;;;;5113549;28;20040;-58
2023/08/06 11:03:15;;;;;;;2.08;1.60;;;22.70;97.80;;;;;;5113882;28;20039;-60
2023/08/06 11:05:40;;;;;;;2.70;1.60;;;22.70;97.40;;;;;;5111829;28;20149;-57
2023/08/06 11:08:06;;;;;;;1.50;1.40;;;22.80;97.40;;;;;;5113504;27;20068;-59
2023/08/06 11:10:35;;;;;;;1.70;1.60;;;22.80;97.50;;;;;;5115529;27;20496;-60
2023/08/06 11:13:02;;;;;;;1.67;1.48;;;22.90;97.00;;;;;;5115064;28;20767;-59
2023/08/06 11:15:29;;;;;;;2.88;2.00;;;23.00;96.40;;;;;;5114859;28;20040;-60
2023/08/06 11:17:55;;;;;;;6.43;1.58;;;23.10;96.90;;;;;;5112319;28;20628;-60
2023/08/06 11:20:22;;;;;;;5.00;1.60;;;23.20;97.30;;;;;;5111761;28;20065;-58
2023/08/06 11:22:48;;;;;;;2.80;1.80;;;23.20;96.80;;;;;;5112464;28;20326;-57
2023/08/06 11:25:13;;;;;;;1.75;1.50;;;23.30;96.20;;;;;;5114052;28;20040;-59
2023/08/06 11:27:39;;;;;;;3.75;1.85;;;23.40;96.30;;;;;;5113254;28;20119;-58
2023/08/06 11:30:10;;;;;;;2.70;1.50;;;23.50;96.00;;;;;;5113489;27;20040;-60
2023/08/06 11:32:46;;;;;;;2.63;1.85;;;23.50;95.80;;;;;;5110930;28;20050;-60
2023/08/06 11:35:12;;;;;;;2.65;1.83;;;23.50;95.40;;;;;;5111861;28;20195;-58
2023/08/06 11:37:43;;;;;;;2.47;1.63;;;23.50;94.70;;;;;;5113661;28;20074;-60
2023/08/06 11:40:12;;;;;;;1.83;1.65;;;23.50;95.10;;;;;;5111003;28;20040;-59
2023/08/06 11:42:38;;;;;;;3.17;1.60;;;23.40;95.00;;;;;;5111885;28;20032;-59
2023/08/06 11:45:04;;;;;;;3.88;1.80;;;23.50;95.20;;;;;;5111532;28;20047;-60
2023/08/06 11:47:30;;;;;;;3.38;2.08;;;23.60;94.80;;;;;;5110345;28;20304;-59
2023/08/06 11:49:56;;;;;;;3.10;1.70;;;23.70;94.70;;;;;;5092802;28;20145;-59
2023/08/06 11:52:24;;;;;;;2.75;1.73;;;23.70;94.50;;;;;;5111759;28;20099;-59
2023/08/06 11:55:06;;;;;;;3.20;1.77;;;23.90;94.50;;;;;;5112897;28;20036;-59
2023/08/06 11:57:34;;;;;;;4.30;1.92;;;24.10;94.60;;;;;;5110264;28;20040;-60
2023/08/06 12:00:09;;;;;;;2.38;1.90;;;24.10;93.90;;;;;;5098331;28;20590;-59
2023/08/06 12:02:37;;;;;;;2.13;1.70;;;23.90;93.50;;;;;;5110781;28;20075;-60
2023/08/06 12:05:10;;;;;;;2.78;1.95;;;23.80;94.40;;;;;;5076447;28;20052;-58
2023/08/06 12:07:39;;;;;;;;;;;23.80;94.20;;;;;;5113345;27;20043;-60
2023/08/06 12:10:05;;;;;;;4.43;1.88;;;23.70;95.00;;;;;;5092961;28;19916;-60
2023/08/06 12:12:31;;;;;;;2.90;1.92;;;23.60;94.90;;;;;;5110875;27;20040;-60
2023/08/06 12:14:57;;;;;;;4.40;1.88;;;23.40;95.10;;;;;;5110251;28;20040;-59
2023/08/06 12:17:24;;;;;;;2.88;1.60;;;23.30;94.90;;;;;;5097020;28;20040;-59
2023/08/06 12:19:50;;;;;;;5.82;1.80;;;23.20;94.90;;;;;;5111823;28;20083;-60
2023/08/06 12:22:16;;;;;;;2.75;1.70;;;23.10;95.30;;;;;;5109448;27;20052;-58
2023/08/06 12:24:46;;;;;;;2.35;1.50;;;23.20;95.20;;;;;;5109424;28;20048;-57
2023/08/06 12:27:12;;;;;;;4.78;1.90;;;23.30;95.00;;;;;;5110124;28;20470;-59
2023/08/06 12:29:42;;;;;;;2.83;1.70;;;23.30;95.00;;;;;;5110570;28;20070;-59
2023/08/06 12:32:09;;;;;;;2.08;1.40;;;23.40;94.90;;;;;;5110639;28;20055;-59
2023/08/06 12:34:35;;;;;;;2.05;1.52;;;23.40;95.00;;;;;;5111801;28;20051;-58
2023/08/06 12:37:02;;;;;;;1.80;1.55;;;23.50;95.00;;;;;;5111543;28;20043;-58
2023/08/06 12:39:28;;;;;;;2.60;1.70;;;23.50;95.00;;;;;;5110796;28;20044;-56